Terminal Aerodrome Forecast
Issued by NWS Columbia, SC

Home | Current Version | Previous Version | Text Only | Print | Product List | Glossary On
Versions: 1 2 3 4 5 6 7 8 9 10 11 12 13 14 15 16 17 18 19 20 21 22 23 24 25 26 27 28 29 30 31 32 33 34 35 36 37 38 39 40 41 42 43 44 45 46 47 48 49
000
FTAK31 PAJN 131140
TAFAGS
TAF
PAGS 131140Z 1312/1412 00000KT P6SM OVC035
     FM131500 13008KT 4SM -RA SCT015 OVC025 WS020/14035KT
     FM132200 16008KT 4SM RA BR BKN007 OVC012 WS020/14035KT
     FM140400 15012G22KT 4SM RA BR SCT007 BKN015 OVC025
      WS020/14040KT
     FM140800 14010G20KT 4SM RA BR SCT015 OVC025
      AMD LTD TO CLD VIS AND WIND=

USA.gov is the U.S. government's official web portal to all federal, state and local government web resources and services.